createdAt,value
2022-10-12T00:01:24.556Z,3.67
2022-10-12T00:03:53.063Z,3.23
2022-10-12T00:06:23.256Z,3.03
2022-10-12T00:08:54.204Z,3.40
2022-10-12T00:11:25.171Z,4.13
2022-10-12T00:14:05.174Z,3.90
2022-10-12T00:16:38.472Z,3.73
2022-10-12T00:19:19.088Z,3.30
2022-10-12T00:21:50.668Z,3.97
2022-10-12T00:24:22.092Z,3.70
2022-10-12T00:26:51.288Z,3.80
2022-10-12T00:29:21.991Z,3.67
2022-10-12T00:31:52.010Z,3.70
2022-10-12T00:34:20.244Z,3.93
2022-10-12T00:36:48.829Z,3.83
2022-10-12T00:39:17.466Z,2.90
2022-10-12T00:41:48.147Z,3.50
2022-10-12T00:44:41.038Z,4.57
2022-10-12T00:47:18.456Z,4.33
2022-10-12T00:49:51.188Z,3.73
2022-10-12T00:52:22.422Z,3.80
2022-10-12T00:54:55.905Z,4.30
2022-10-12T00:57:25.938Z,3.80
2022-10-12T00:59:59.193Z,4.20
2022-10-12T01:02:30.802Z,3.70
2022-10-12T01:05:00.097Z,3.70
2022-10-12T01:07:28.568Z,3.97
2022-10-12T01:09:56.947Z,3.77
2022-10-12T01:12:25.797Z,3.77
2022-10-12T01:14:54.103Z,3.83
2022-10-12T01:17:36.079Z,3.70
2022-10-12T01:20:29.288Z,3.83
2022-10-12T01:23:16.643Z,3.90
2022-10-12T01:26:01.677Z,4.30
2022-10-12T01:28:42.899Z,4.27
2022-10-12T01:31:18.142Z,3.80
2022-10-12T01:33:51.666Z,4.30
2022-10-12T01:36:27.040Z,3.47
2022-10-12T01:39:00.749Z,4.23
2022-10-12T01:41:35.264Z,3.87
2022-10-12T01:44:03.963Z,3.40
2022-10-12T01:46:47.647Z,3.70
2022-10-12T01:49:20.391Z,3.77
2022-10-12T01:52:06.182Z,3.37
2022-10-12T01:54:44.775Z,3.70
2022-10-12T01:57:21.480Z,3.87
2022-10-12T01:59:59.444Z,3.70
2022-10-12T02:02:36.471Z,3.30
2022-10-12T02:05:13.077Z,3.60
2022-10-12T02:07:49.302Z,3.40
2022-10-12T02:10:25.429Z,3.50
2022-10-12T02:12:56.903Z,3.40
2022-10-12T02:15:28.762Z,3.50
2022-10-12T02:18:04.892Z,3.30
2022-10-12T02:20:35.778Z,3.97
2022-10-12T02:23:08.423Z,3.77
2022-10-12T02:25:46.269Z,3.70
2022-10-12T02:28:19.062Z,3.80
2022-10-12T02:30:54.227Z,3.80
2022-10-12T02:33:33.961Z,3.60
2022-10-12T02:36:09.308Z,3.80
2022-10-12T02:38:42.703Z,3.63
2022-10-12T02:41:16.044Z,3.37
2022-10-12T02:43:56.102Z,4.20
2022-10-12T02:46:30.869Z,3.90
2022-10-12T02:49:05.411Z,3.50
2022-10-12T02:51:35.134Z,3.57
2022-10-12T02:54:07.742Z,3.73
2022-10-12T02:56:45.713Z,3.87
2022-10-12T02:59:21.723Z,3.80
2022-10-12T03:01:52.135Z,3.30
2022-10-12T03:04:22.597Z,3.43
2022-10-12T03:06:54.974Z,3.80
2022-10-12T03:09:29.222Z,3.50
2022-10-12T03:12:05.917Z,3.37
2022-10-12T03:14:35.169Z,3.93
2022-10-12T03:17:03.848Z,3.80
2022-10-12T03:19:35.871Z,3.60
2022-10-12T03:22:06.355Z,3.43
2022-10-12T03:24:35.223Z,3.70
2022-10-12T03:27:03.938Z,3.73
2022-10-12T03:29:32.263Z,4.07
2022-10-12T03:32:01.120Z,4.03
2022-10-12T03:34:33.532Z,3.77
2022-10-12T03:37:01.822Z,3.70
2022-10-12T03:39:30.394Z,4.07
2022-10-12T03:41:59.016Z,3.80
2022-10-12T03:44:30.557Z,3.60
2022-10-12T03:47:00.537Z,3.73
2022-10-12T03:49:31.073Z,4.03
2022-10-12T03:52:02.789Z,4.13
2022-10-12T03:54:39.255Z,4.10
2022-10-12T03:57:10.613Z,3.63
2022-10-12T03:59:39.223Z,3.47
2022-10-12T04:02:15.842Z,3.87
2022-10-12T04:04:45.401Z,3.90
2022-10-12T04:07:15.350Z,4.50
2022-10-12T04:09:43.961Z,4.27
2022-10-12T04:12:12.880Z,3.70
2022-10-12T04:14:41.387Z,4.20
2022-10-12T04:17:09.826Z,4.00
2022-10-12T04:19:37.990Z,3.70
2022-10-12T04:22:06.189Z,4.13
2022-10-12T04:24:38.968Z,4.03
2022-10-12T04:27:12.366Z,3.93
2022-10-12T04:29:40.700Z,4.20
2022-10-12T04:32:12.527Z,4.00
2022-10-12T04:34:41.269Z,4.00
2022-10-12T04:37:09.568Z,4.03
2022-10-12T04:39:39.145Z,3.27
2022-10-12T04:42:07.855Z,4.00
2022-10-12T04:44:36.105Z,4.37
2022-10-12T04:47:04.436Z,4.20
2022-10-12T04:49:32.545Z,4.50
2022-10-12T04:52:00.777Z,4.10
2022-10-12T04:54:29.168Z,4.03
2022-10-12T04:56:58.713Z,4.20
2022-10-12T04:59:26.992Z,4.33
2022-10-12T05:01:58.493Z,4.83
2022-10-12T05:04:26.700Z,4.67
2022-10-12T05:06:55.117Z,3.70
2022-10-12T05:09:25.620Z,4.37
2022-10-12T05:11:53.879Z,3.87
2022-10-12T05:14:23.807Z,3.80
2022-10-12T05:16:52.184Z,4.60
2022-10-12T05:19:20.750Z,4.07
2022-10-12T05:21:49.214Z,4.50
2022-10-12T05:24:18.035Z,4.40
2022-10-12T05:26:46.518Z,4.80
2022-10-12T05:29:17.297Z,4.37
2022-10-12T05:31:49.487Z,4.40
2022-10-12T05:34:17.967Z,4.70
2022-10-12T05:36:58.356Z,4.10
2022-10-12T05:39:26.611Z,4.60
2022-10-12T05:41:55.861Z,5.40
2022-10-12T05:44:24.048Z,4.63
2022-10-12T05:46:53.814Z,4.70
2022-10-12T05:49:22.083Z,4.33
2022-10-12T05:51:50.092Z,3.90
2022-10-12T05:54:21.815Z,4.90
2022-10-12T05:57:10.984Z,4.70
2022-10-12T06:01:10.593Z,3.93
2022-10-12T06:04:51.972Z,4.23
2022-10-12T06:08:46.089Z,4.87
2022-10-12T06:14:57.565Z,4.33
2022-10-12T06:17:25.831Z,4.60
2022-10-12T06:19:55.342Z,4.10
2022-10-12T06:22:23.425Z,4.70
2022-10-12T06:24:51.759Z,4.80
2022-10-12T06:27:20.730Z,4.37
2022-10-12T06:29:48.882Z,4.60
2022-10-12T06:32:19.299Z,4.17
2022-10-12T06:34:50.172Z,4.27
2022-10-12T06:37:44.343Z,4.63
2022-10-12T06:40:09.451Z,5.03
2022-10-12T06:42:38.029Z,4.83
2022-10-12T06:45:08.510Z,4.53
2022-10-12T06:47:36.561Z,4.50
2022-10-12T06:50:05.679Z,4.77
2022-10-12T06:52:35.725Z,4.90
2022-10-12T06:55:04.353Z,4.80
2022-10-12T06:57:32.816Z,4.80
2022-10-12T07:00:03.458Z,4.60
2022-10-12T07:02:31.710Z,4.33
2022-10-12T07:04:59.727Z,5.00
2022-10-12T07:07:30.097Z,5.03
2022-10-12T07:09:59.689Z,4.90
2022-10-12T07:12:28.049Z,4.63
2022-10-12T07:14:56.119Z,4.73
2022-10-12T07:17:24.143Z,5.00
2022-10-12T07:19:52.275Z,4.73
2022-10-12T07:22:20.353Z,4.77
2022-10-12T07:24:48.402Z,4.43
2022-10-12T07:27:17.927Z,4.63
2022-10-12T07:29:45.943Z,5.03
2022-10-12T07:32:14.084Z,5.03
2022-10-12T07:34:44.615Z,5.30
2022-10-12T07:37:13.424Z,5.90
2022-10-12T07:39:43.049Z,5.57
2022-10-12T07:42:13.469Z,5.43
2022-10-12T07:44:46.207Z,6.10
2022-10-12T07:47:16.406Z,5.87
2022-10-12T07:49:44.483Z,5.10
2022-10-12T07:52:12.543Z,6.60
2022-10-12T07:54:40.553Z,5.47
2022-10-12T07:57:08.776Z,6.17
2022-10-12T07:59:42.268Z,6.10
2022-10-12T08:02:15.187Z,6.07
2022-10-12T08:04:47.765Z,5.63
2022-10-12T08:07:22.102Z,6.10
2022-10-12T08:09:53.486Z,5.70
2022-10-12T08:12:21.773Z,6.73
2022-10-12T08:14:49.894Z,6.73
2022-10-12T08:17:22.914Z,5.73
2022-10-12T08:19:51.076Z,6.20
2022-10-12T08:22:20.254Z,6.07
2022-10-12T08:24:50.174Z,6.23
2022-10-12T08:27:32.146Z,5.80
2022-10-12T08:30:00.534Z,5.77
2022-10-12T08:32:32.532Z,6.33
2022-10-12T08:35:01.110Z,6.90
2022-10-12T08:37:31.191Z,6.30
2022-10-12T08:40:03.034Z,6.13
2022-10-12T08:42:41.061Z,6.57
2022-10-12T08:45:30.630Z,6.40
2022-10-12T08:48:16.403Z,6.40
2022-10-12T08:50:52.212Z,6.70
2022-10-12T08:53:26.879Z,6.83
2022-10-12T08:55:59.518Z,7.10
2022-10-12T08:58:33.127Z,6.73
2022-10-12T09:01:17.121Z,7.20
2022-10-12T09:04:04.352Z,7.03
2022-10-12T09:06:58.396Z,6.40
2022-10-12T09:09:53.322Z,6.90
2022-10-12T09:12:45.744Z,7.93
2022-10-12T09:15:25.868Z,6.83
2022-10-12T09:17:58.623Z,7.40
2022-10-12T09:20:34.367Z,6.90
2022-10-12T09:23:17.370Z,8.03
2022-10-12T09:25:50.487Z,6.87
2022-10-12T09:28:35.742Z,7.20
2022-10-12T09:31:31.607Z,7.13
2022-10-12T09:34:01.986Z,7.57
2022-10-12T09:36:35.381Z,7.97
2022-10-12T09:39:05.834Z,7.70
2022-10-12T09:41:36.605Z,7.60
2022-10-12T09:44:07.198Z,7.53
2022-10-12T09:46:44.952Z,7.43
2022-10-12T09:49:17.415Z,8.00
2022-10-12T09:51:47.741Z,8.17
2022-10-12T09:54:20.386Z,7.37
2022-10-12T09:56:51.293Z,7.53
2022-10-12T09:59:28.082Z,7.67
2022-10-12T10:02:05.586Z,8.40
2022-10-12T10:04:35.411Z,8.70
2022-10-12T10:07:28.096Z,7.07
2022-10-12T10:10:15.060Z,7.53
2022-10-12T10:12:49.940Z,7.43
2022-10-12T10:15:27.936Z,8.67
2022-10-12T10:17:59.594Z,7.67
2022-10-12T10:20:34.535Z,8.07
2022-10-12T10:23:05.353Z,7.40
2022-10-12T10:25:35.283Z,7.57
2022-10-12T10:28:24.272Z,7.27
2022-10-12T10:31:02.756Z,8.90
2022-10-12T10:33:32.135Z,7.60
2022-10-12T10:36:04.187Z,8.30
2022-10-12T10:38:46.939Z,7.90
2022-10-12T10:41:19.713Z,8.30
2022-10-12T10:43:49.456Z,8.50
2022-10-12T10:46:24.946Z,8.13
2022-10-12T10:48:57.941Z,7.93
2022-10-12T10:51:42.640Z,7.90
2022-10-12T10:54:29.059Z,7.57
2022-10-12T10:57:02.979Z,7.57
2022-10-12T10:59:43.220Z,7.37
2022-10-12T11:02:21.613Z,7.97
2022-10-12T11:04:54.573Z,7.97
2022-10-12T11:07:28.810Z,8.50
2022-10-12T11:10:02.125Z,7.77
2022-10-12T11:12:34.651Z,7.37
2022-10-12T11:15:10.521Z,7.47
2022-10-12T11:17:43.565Z,7.70
2022-10-12T11:20:43.846Z,7.60
2022-10-12T11:23:24.172Z,8.07
2022-10-12T11:26:09.215Z,7.50
2022-10-12T11:28:39.447Z,7.70
2022-10-12T11:31:15.600Z,7.40
2022-10-12T11:33:45.795Z,7.53
2022-10-12T11:36:16.688Z,7.53
2022-10-12T11:38:48.776Z,7.03
2022-10-12T11:41:37.028Z,7.33
2022-10-12T11:44:10.959Z,7.33
2022-10-12T11:46:43.612Z,7.43
2022-10-12T11:49:16.648Z,6.43
2022-10-12T11:51:48.450Z,7.20
2022-10-12T11:54:25.656Z,7.83
2022-10-12T11:56:59.683Z,6.80
2022-10-12T11:59:35.082Z,6.70
2022-10-12T12:02:13.824Z,6.70
2022-10-12T12:04:45.264Z,7.20
2022-10-12T12:07:53.918Z,6.50
2022-10-12T12:10:44.573Z,6.70
2022-10-12T12:13:23.127Z,6.03
2022-10-12T12:16:29.968Z,6.80
2022-10-12T12:19:38.574Z,6.50
2022-10-12T12:22:35.143Z,7.43
2022-10-12T12:25:15.022Z,6.67
2022-10-12T12:27:44.722Z,5.97
2022-10-12T12:30:36.805Z,6.63
2022-10-12T12:33:08.725Z,6.00
2022-10-12T12:35:40.318Z,6.83
2022-10-12T12:38:23.889Z,6.23
2022-10-12T12:41:00.363Z,6.27
2022-10-12T12:43:57.146Z,6.13
2022-10-12T12:46:42.741Z,6.37
2022-10-12T12:49:26.828Z,6.23
2022-10-12T12:51:57.859Z,6.10
2022-10-12T12:54:26.866Z,6.63
2022-10-12T12:57:19.020Z,6.03
2022-10-12T13:00:13.915Z,6.27
2022-10-12T13:03:23.363Z,6.50
2022-10-12T13:06:30.252Z,6.53
2022-10-12T13:09:20.799Z,5.93
2022-10-12T13:12:21.890Z,5.97
2022-10-12T13:15:13.059Z,5.80
2022-10-12T13:18:14.551Z,6.07
2022-10-12T13:20:53.069Z,5.90
2022-10-12T13:23:24.599Z,5.83
2022-10-12T13:25:57.902Z,6.40
2022-10-12T13:28:29.280Z,6.30
2022-10-12T13:31:02.011Z,6.43
2022-10-12T13:33:33.961Z,6.50
2022-10-12T13:36:08.378Z,5.67
2022-10-12T13:38:38.451Z,5.83
2022-10-12T13:41:10.625Z,6.40
2022-10-12T13:43:45.838Z,6.03
2022-10-12T13:46:15.415Z,5.90
2022-10-12T13:49:05.490Z,5.47
2022-10-12T13:51:35.547Z,5.30
2022-10-12T13:54:14.947Z,5.97
2022-10-12T13:56:43.831Z,6.13
2022-10-12T13:59:19.108Z,6.50
2022-10-12T14:01:52.804Z,6.27
2022-10-12T14:04:21.160Z,5.90
2022-10-12T14:06:57.468Z,5.57
2022-10-12T14:09:27.277Z,5.47
2022-10-12T14:11:57.147Z,5.57
2022-10-12T14:14:33.332Z,6.10
2022-10-12T14:17:01.703Z,6.27
2022-10-12T14:19:44.835Z,5.90
2022-10-12T14:22:20.221Z,5.40
2022-10-12T14:24:48.508Z,6.07
2022-10-12T14:27:25.593Z,5.80
2022-10-12T14:30:17.797Z,5.47
2022-10-12T14:32:46.784Z,6.03
2022-10-12T14:35:27.603Z,5.70
2022-10-12T14:37:59.113Z,5.97
2022-10-12T14:40:39.580Z,6.10
2022-10-12T14:43:21.671Z,5.50
2022-10-12T14:45:51.051Z,5.40
2022-10-12T14:48:23.940Z,5.60
2022-10-12T14:50:52.856Z,6.17
2022-10-12T14:53:24.791Z,5.53
2022-10-12T14:55:54.679Z,6.20
2022-10-12T14:58:22.902Z,6.10
2022-10-12T15:00:51.145Z,5.43
2022-10-12T15:03:20.170Z,6.17
2022-10-12T15:05:48.240Z,5.73
2022-10-12T15:08:16.296Z,5.50
2022-10-12T15:10:50.776Z,5.57
2022-10-12T15:13:18.808Z,5.60
2022-10-12T15:15:49.285Z,5.50
2022-10-12T15:18:17.331Z,5.13
2022-10-12T15:20:49.383Z,5.20
2022-10-12T15:23:18.050Z,5.00
2022-10-12T15:25:51.816Z,5.27
2022-10-12T15:28:23.484Z,5.13
2022-10-12T15:33:42.144Z,5.40
2022-10-12T15:36:10.855Z,5.50
2022-10-12T15:38:38.995Z,4.93
2022-10-12T15:41:17.240Z,4.97
2022-10-12T15:43:45.734Z,5.30
2022-10-12T15:46:14.096Z,5.13
2022-10-12T15:48:43.887Z,5.17
2022-10-12T15:51:20.585Z,4.97
2022-10-12T15:53:48.685Z,5.43
2022-10-12T15:56:19.147Z,4.97
2022-10-12T15:58:47.181Z,4.93
2022-10-12T16:01:17.441Z,4.93
2022-10-12T16:03:53.515Z,5.57
2022-10-12T16:06:34.108Z,5.00
2022-10-12T16:09:05.170Z,5.17
2022-10-12T16:11:34.704Z,4.97
2022-10-12T16:14:04.083Z,5.20
2022-10-12T16:16:32.358Z,5.37
2022-10-12T16:19:00.434Z,5.47
2022-10-12T16:21:30.754Z,5.17
2022-10-12T16:23:58.866Z,5.27
2022-10-12T16:27:22.769Z,5.87
2022-10-12T16:30:14.639Z,5.33
2022-10-12T16:38:20.338Z,5.70
2022-10-12T16:45:24.911Z,5.03
2022-10-12T16:48:23.789Z,4.83
2022-10-12T16:50:54.184Z,5.10
2022-10-12T16:53:49.849Z,5.23
2022-10-12T16:59:45.234Z,5.30
2022-10-12T17:02:18.229Z,5.37
2022-10-12T17:05:32.960Z,5.90
2022-10-12T17:13:19.684Z,5.43
2022-10-12T17:17:06.233Z,5.77
2022-10-12T17:19:41.066Z,5.83
2022-10-12T17:22:16.625Z,5.47
2022-10-12T17:24:45.963Z,5.87
2022-10-12T17:27:33.993Z,5.73
2022-10-12T17:30:41.658Z,5.87
2022-10-12T17:33:27.232Z,5.47
2022-10-12T17:36:03.246Z,5.07
2022-10-12T17:39:11.217Z,3.70
2022-10-12T17:42:04.952Z,5.40
2022-10-12T18:23:45.025Z,5.93
2022-10-12T18:26:26.665Z,6.23
2022-10-12T18:41:48.289Z,5.93
2022-10-12T19:07:28.384Z,5.27
2022-10-12T19:13:45.482Z,5.50
2022-10-12T19:16:25.262Z,5.17
2022-10-12T19:19:00.895Z,5.60
2022-10-12T19:24:35.718Z,5.23
2022-10-12T19:27:21.730Z,5.50
2022-10-12T19:30:55.604Z,5.80
2022-10-12T19:34:46.899Z,4.60
2022-10-12T19:41:44.170Z,4.10
2022-10-12T19:45:30.515Z,4.07
2022-10-12T20:23:28.545Z,5.10
2022-10-12T20:26:25.382Z,4.97
2022-10-12T20:28:55.713Z,5.47
2022-10-12T20:31:29.715Z,6.50
2022-10-12T20:34:04.650Z,6.60
2022-10-12T20:37:30.361Z,6.07
2022-10-12T20:44:27.607Z,6.20
2022-10-12T20:47:43.578Z,5.50
2022-10-12T20:50:22.793Z,5.27
2022-10-12T20:53:00.790Z,5.00
2022-10-12T20:55:41.338Z,5.33
2022-10-12T20:58:12.084Z,6.10
2022-10-12T21:00:52.199Z,5.67
2022-10-12T21:03:23.880Z,6.03
2022-10-12T21:06:06.836Z,6.30
2022-10-12T21:08:56.809Z,6.07
2022-10-12T21:11:39.825Z,5.97
2022-10-12T21:14:29.224Z,5.00
2022-10-12T21:17:32.850Z,5.13
2022-10-12T21:20:17.260Z,5.27
2022-10-12T21:23:19.662Z,5.30
2022-10-12T21:25:58.643Z,5.67
2022-10-12T21:28:58.288Z,5.57
2022-10-12T21:31:48.547Z,5.50
2022-10-12T21:34:41.476Z,4.77
2022-10-12T21:37:13.480Z,6.27
2022-10-12T21:39:56.548Z,6.30
2022-10-12T21:42:43.202Z,5.10
2022-10-12T21:45:20.789Z,4.97
2022-10-12T21:48:06.066Z,6.27
2022-10-12T21:50:52.633Z,6.87
2022-10-12T21:53:32.300Z,6.90
2022-10-12T21:56:05.815Z,6.47
2022-10-12T21:58:41.925Z,6.23
2022-10-12T22:01:21.422Z,5.97
2022-10-12T22:04:36.171Z,7.10
2022-10-12T22:07:31.409Z,7.33
2022-10-12T22:09:59.938Z,7.20
2022-10-12T22:12:30.283Z,7.67
2022-10-12T22:15:01.856Z,7.40
2022-10-12T22:17:41.087Z,7.00
2022-10-12T22:20:12.913Z,7.10
2022-10-12T22:23:14.322Z,7.33
2022-10-12T22:25:56.993Z,6.57
2022-10-12T22:33:04.405Z,6.40
2022-10-12T22:36:35.986Z,6.80
2022-10-12T22:39:13.836Z,6.73
2022-10-12T22:56:28.528Z,6.43
2022-10-12T22:59:52.495Z,7.00
2022-10-12T23:02:30.952Z,7.07
2022-10-12T23:04:59.185Z,6.87
2022-10-12T23:07:28.036Z,6.57
2022-10-12T23:10:09.555Z,5.30
2022-10-12T23:12:41.119Z,5.93
2022-10-12T23:15:13.622Z,7.00
2022-10-12T23:17:43.246Z,6.50
2022-10-12T23:20:12.403Z,6.20
2022-10-12T23:22:43.063Z,6.77
2022-10-12T23:25:14.004Z,6.00
2022-10-12T23:27:42.946Z,5.80
2022-10-12T23:30:14.310Z,5.97
2022-10-12T23:32:45.219Z,4.93
2022-10-12T23:35:17.012Z,5.67
2022-10-12T23:37:47.012Z,5.60
2022-10-12T23:40:23.199Z,5.70
2022-10-12T23:42:53.899Z,6.23
2022-10-12T23:45:29.178Z,5.97
2022-10-12T23:48:06.383Z,7.07
2022-10-12T23:50:44.043Z,7.67
2022-10-12T23:53:19.038Z,8.07
2022-10-12T23:55:59.490Z,8.03
2022-10-12T23:58:32.472Z,7.27
